Terminal Aerodrome Forecast
Issued by NWS

Home | Current Version | Previous Version | Text Only | Print | Product List | Glossary On
Versions: 1 2 3 4 5 6 7 8 9 10 11 12 13 14 15 16 17 18 19 20 21 22 23 24 25 26 27 28 29 30
000
FTAK31 PANC 280542
TAFACD
TAF
PACD 280542Z 2806/0106 VRB05KT P6SM -SHRA BKN025 OVC040
      TEMPO 2806/2810 SCT025 OVC040
     FM281200 32010KT P6SM -SHRA BKN025
     FM282100 01012G16KT P6SM SCT025 BKN040=

USA.gov is the U.S. government's official web portal to all federal, state and local government web resources and services.